Time;durP1;ratioP1;P1;durP2;ratioP2;P2;SDS_P1;SDS_P2;PMS_P1;PMS_P2;Temp;Humidity;BMP_temperature;BMP_pressure;BME280_temperature;BME280_humidity;BME280_pressure;Samples;Min_cycle;Max_cycle;Signal;HPM_P1;HPM_P2
2023/05/06 00:00:04;;;;;;;16.45;12.20;;;11.80;99.90;;;;;;5006603;28;20037;-73
2023/05/06 00:02:30;;;;;;;20.58;13.88;;;11.80;99.90;;;;;;4992009;28;20383;-73
2023/05/06 00:04:55;;;;;;;19.67;12.82;;;11.80;99.90;;;;;;4992088;28;20030;-73
2023/05/06 00:07:21;;;;;;;21.45;13.85;;;11.90;99.90;;;;;;4988120;28;20089;-73
2023/05/06 00:09:47;;;;;;;21.50;14.38;;;11.90;99.90;;;;;;4978423;28;20064;-73
2023/05/06 00:12:14;;;;;;;20.08;14.75;;;11.80;99.90;;;;;;5002471;28;20434;-74
2023/05/06 00:14:39;;;;;;;21.95;14.82;;;11.90;99.90;;;;;;4991400;28;20022;-73
2023/05/06 00:17:05;;;;;;;21.42;14.82;;;11.80;99.90;;;;;;4992262;28;20505;-74
2023/05/06 00:19:31;;;;;;;23.63;15.77;;;11.80;99.90;;;;;;4993931;28;20064;-74
2023/05/06 00:21:57;;;;;;;22.23;15.23;;;11.80;99.90;;;;;;4992469;28;20421;-74
2023/05/06 00:24:22;;;;;;;24.48;15.85;;;11.80;99.90;;;;;;4992262;28;20642;-74
2023/05/06 00:26:48;;;;;;;24.95;16.23;;;11.80;99.90;;;;;;4992756;28;20105;-73
2023/05/06 00:29:13;;;;;;;23.65;16.98;;;11.70;99.90;;;;;;4992914;28;20030;-73
2023/05/06 00:31:39;;;;;;;21.25;16.17;;;11.70;99.90;;;;;;4988141;28;20026;-74
2023/05/06 00:34:05;;;;;;;23.67;15.98;;;11.70;99.90;;;;;;4991311;28;20509;-74
2023/05/06 00:36:31;;;;;;;23.77;16.13;;;11.70;99.90;;;;;;4995372;28;20030;-74
2023/05/06 00:38:56;;;;;;;23.67;15.35;;;11.70;99.90;;;;;;4990044;28;20042;-74
2023/05/06 00:41:22;;;;;;;23.15;16.00;;;11.60;99.90;;;;;;4987348;28;20041;-73
2023/05/06 00:43:47;;;;;;;25.27;16.65;;;11.60;99.90;;;;;;4992487;28;20184;-73
2023/05/06 00:46:14;;;;;;;30.25;18.38;;;11.60;99.90;;;;;;4990171;28;20026;-73
2023/05/06 00:48:41;;;;;;;24.85;17.42;;;11.50;99.90;;;;;;4991685;28;20405;-74
2023/05/06 00:51:07;;;;;;;22.02;16.77;;;11.50;99.90;;;;;;4990399;28;20026;-74
2023/05/06 00:53:32;;;;;;;24.50;17.80;;;11.50;99.90;;;;;;4987444;28;20052;-74
2023/05/06 00:55:58;;;;;;;25.60;18.73;;;11.50;99.90;;;;;;4984474;28;20541;-73
2023/05/06 00:58:23;;;;;;;25.63;18.73;;;11.40;99.90;;;;;;4989859;28;20064;-73
2023/05/06 01:00:50;;;;;;;26.98;18.45;;;11.40;99.90;;;;;;4999219;28;20035;-73
2023/05/06 01:03:17;;;;;;;26.83;18.55;;;11.40;99.90;;;;;;4990577;28;20018;-73
2023/05/06 01:06:12;;;;;;;20.85;14.82;;;11.30;99.90;;;;;;4982306;28;20110;-73
2023/05/06 01:08:50;;;;;;;20.98;14.38;;;11.30;99.90;;;;;;5005441;28;20022;-73
2023/05/06 01:11:23;;;;;;;30.90;16.27;;;11.20;99.90;;;;;;4990791;28;20031;-73
2023/05/06 01:14:00;;;;;;;24.52;16.08;;;11.10;99.90;;;;;;4992551;28;20485;-73
2023/05/06 01:16:29;;;;;;;23.42;16.70;;;11.00;99.90;;;;;;4981715;28;20134;-73
2023/05/06 01:18:56;;;;;;;27.45;18.05;;;10.90;99.90;;;;;;4985602;28;20032;-74
2023/05/06 01:21:23;;;;;;;28.15;19.08;;;10.90;99.90;;;;;;4993432;28;20444;-74
2023/05/06 01:23:58;;;;;;;28.20;18.15;;;10.80;99.90;;;;;;4990554;28;20092;-73
2023/05/06 01:26:24;;;;;;;24.98;18.08;;;10.80;99.90;;;;;;4988341;28;20337;-73
2023/05/06 01:28:50;;;;;;;29.55;19.15;;;10.70;99.90;;;;;;4990386;28;20034;-73
2023/05/06 01:31:23;;;;;;;25.67;17.80;;;10.70;99.90;;;;;;4989241;28;20052;-73
2023/05/06 01:34:04;;;;;;;24.13;17.23;;;10.60;99.90;;;;;;4990487;28;20034;-73
2023/05/06 01:36:46;;;;;;;24.25;16.70;;;10.60;99.90;;;;;;4985412;28;20022;-73
2023/05/06 01:39:17;;;;;;;28.50;18.88;;;10.50;99.90;;;;;;4992851;28;20490;-73
2023/05/06 01:41:45;;;;;;;26.27;18.92;;;10.50;99.90;;;;;;4998577;28;20070;-73
2023/05/06 01:44:12;;;;;;;30.13;19.40;;;10.40;99.90;;;;;;4978369;28;20089;-73
2023/05/06 01:46:38;;;;;;;33.70;21.55;;;10.40;99.90;;;;;;4985962;28;20100;-73
2023/05/06 01:49:07;;;;;;;20.38;15.00;;;10.40;99.90;;;;;;4998051;28;20033;-73
2023/05/06 01:51:33;;;;;;;18.92;14.57;;;10.30;99.90;;;;;;4988868;28;20037;-73
2023/05/06 01:53:59;;;;;;;24.75;16.67;;;10.30;99.90;;;;;;4988451;28;20042;-73
2023/05/06 01:56:25;;;;;;;24.25;16.25;;;10.20;99.90;;;;;;4990671;28;20082;-73
2023/05/06 01:58:50;;;;;;;29.48;18.77;;;10.20;99.90;;;;;;4991726;28;20397;-73
2023/05/06 02:01:17;;;;;;;30.67;18.73;;;10.20;99.90;;;;;;4989861;28;20049;-73
2023/05/06 02:03:42;;;;;;;33.38;19.98;;;10.10;99.90;;;;;;4985296;28;20459;-73
2023/05/06 02:06:08;;;;;;;29.48;20.17;;;10.10;99.90;;;;;;4989013;28;20046;-73
2023/05/06 02:08:34;;;;;;;29.42;20.75;;;10.10;99.90;;;;;;4994906;28;20040;-73
2023/05/06 02:10:59;;;;;;;23.85;16.35;;;10.10;99.90;;;;;;4979949;28;20037;-73
2023/05/06 02:13:25;;;;;;;32.65;18.98;;;10.10;99.90;;;;;;4988601;28;20025;-73
2023/05/06 02:15:53;;;;;;;27.98;18.63;;;10.10;99.90;;;;;;4987500;28;20026;-73
2023/05/06 02:18:19;;;;;;;28.00;18.17;;;10.10;99.90;;;;;;5000054;28;20114;-73
2023/05/06 02:20:45;;;;;;;25.20;18.77;;;10.00;99.90;;;;;;5000473;28;20461;-74
2023/05/06 02:23:10;;;;;;;29.77;20.45;;;10.00;99.90;;;;;;4989280;28;20046;-74
2023/05/06 02:25:36;;;;;;;34.42;21.70;;;10.00;99.90;;;;;;4984186;28;20506;-73
2023/05/06 02:28:01;;;;;;;37.65;22.55;;;9.90;99.90;;;;;;4991108;28;20062;-73
2023/05/06 02:30:29;;;;;;;34.85;23.00;;;9.90;99.90;;;;;;4986351;28;20037;-73
2023/05/06 02:32:55;;;;;;;35.15;23.73;;;10.00;99.90;;;;;;4989244;28;20486;-73
2023/05/06 02:35:21;;;;;;;38.72;23.33;;;10.10;99.90;;;;;;5006859;28;20053;-73
2023/05/06 02:37:47;;;;;;;33.15;21.42;;;10.10;99.90;;;;;;4990186;28;20031;-74
2023/05/06 02:40:12;;;;;;;38.92;20.98;;;10.00;99.90;;;;;;4991276;28;20185;-73
2023/05/06 02:42:38;;;;;;;29.98;20.48;;;10.00;99.90;;;;;;4990193;28;20057;-73
2023/05/06 02:45:04;;;;;;;30.92;20.90;;;10.00;99.90;;;;;;4984137;28;20509;-74
2023/05/06 02:47:30;;;;;;;30.48;20.60;;;9.90;99.90;;;;;;4979064;28;20038;-73
2023/05/06 02:49:55;;;;;;;31.63;21.10;;;9.90;99.90;;;;;;4988490;28;20041;-73
2023/05/06 02:52:21;;;;;;;37.90;22.02;;;9.90;99.90;;;;;;4986514;28;20022;-73
2023/05/06 02:54:46;;;;;;;36.28;22.42;;;9.90;99.90;;;;;;4983581;28;20037;-73
2023/05/06 02:57:12;;;;;;;44.90;24.75;;;9.90;99.90;;;;;;4986148;28;20025;-72
2023/05/06 02:59:38;;;;;;;43.28;24.58;;;9.90;99.90;;;;;;4990922;28;20049;-73
2023/05/06 03:02:04;;;;;;;35.67;22.98;;;10.00;99.90;;;;;;4982148;28;20026;-73
2023/05/06 03:04:29;;;;;;;42.00;22.70;;;10.00;99.90;;;;;;4992984;28;20114;-74
2023/05/06 03:06:55;;;;;;;30.52;21.05;;;9.90;99.90;;;;;;5006581;28;20041;-73
2023/05/06 03:09:20;;;;;;;35.47;22.98;;;9.90;99.90;;;;;;4991297;28;20113;-73
2023/05/06 03:11:46;;;;;;;35.03;21.13;;;9.90;99.90;;;;;;4993926;28;20033;-73
2023/05/06 03:14:11;;;;;;;40.85;20.38;;;9.80;99.90;;;;;;4999043;28;20483;-73
2023/05/06 03:16:37;;;;;;;37.70;22.08;;;9.80;99.90;;;;;;4994014;28;20035;-73
2023/05/06 03:19:02;;;;;;;70.40;23.02;;;9.80;99.90;;;;;;4991348;28;20039;-73
2023/05/06 03:21:28;;;;;;;62.17;23.08;;;9.80;99.90;;;;;;4992004;28;20034;-73
2023/05/06 03:23:55;;;;;;;48.85;21.90;;;9.70;99.90;;;;;;4995175;28;20026;-73
2023/05/06 03:26:20;;;;;;;65.28;23.02;;;9.80;99.90;;;;;;4994020;28;20034;-73
2023/05/06 03:28:46;;;;;;;70.35;24.25;;;9.80;99.90;;;;;;5004921;28;20437;-73
2023/05/06 03:31:11;;;;;;;61.95;23.90;;;9.70;99.90;;;;;;5006453;28;20127;-73
2023/05/06 03:33:37;;;;;;;91.70;23.60;;;9.70;99.90;;;;;;4985386;28;20597;-73
2023/05/06 03:36:03;;;;;;;132.75;26.48;;;9.70;99.90;;;;;;4991717;28;20076;-73
2023/05/06 03:38:29;;;;;;;35.65;21.33;;;9.70;99.90;;;;;;4993585;28;20041;-73
2023/05/06 03:40:54;;;;;;;55.88;24.05;;;9.70;99.90;;;;;;4992416;28;20386;-73
2023/05/06 03:43:20;;;;;;;41.53;22.38;;;9.70;99.90;;;;;;4995588;28;20578;-73
2023/05/06 03:45:46;;;;;;;34.45;22.27;;;9.70;99.90;;;;;;4994244;28;20094;-73
2023/05/06 03:48:11;;;;;;;34.50;20.65;;;9.60;99.90;;;;;;4991675;28;20034;-73
2023/05/06 03:50:37;;;;;;;55.97;21.95;;;9.60;99.90;;;;;;4992815;28;20053;-73
2023/05/06 03:53:03;;;;;;;27.50;19.08;;;9.50;99.90;;;;;;4991720;28;20040;-73
2023/05/06 03:55:29;;;;;;;37.47;20.15;;;9.50;99.90;;;;;;4986443;28;20109;-73
2023/05/06 03:57:54;;;;;;;34.53;20.38;;;9.40;99.90;;;;;;4993127;28;20049;-73
2023/05/06 04:00:20;;;;;;;34.28;21.58;;;9.40;99.90;;;;;;4990915;28;20482;-73
2023/05/06 04:02:45;;;;;;;34.15;22.70;;;9.30;99.90;;;;;;4994575;28;20021;-73
2023/05/06 04:05:11;;;;;;;37.67;22.55;;;9.40;99.90;;;;;;4998045;28;20105;-74
2023/05/06 04:07:36;;;;;;;37.38;22.17;;;9.30;99.90;;;;;;4992665;28;20036;-73
2023/05/06 04:10:02;;;;;;;30.27;21.92;;;9.40;99.90;;;;;;4993658;28;20166;-73
2023/05/06 04:12:27;;;;;;;34.92;23.13;;;9.40;99.90;;;;;;4991005;28;20372;-73
2023/05/06 04:14:53;;;;;;;31.75;21.50;;;9.40;99.90;;;;;;5000087;28;20030;-73
2023/05/06 04:17:18;;;;;;;35.63;23.38;;;9.30;99.90;;;;;;5001741;28;20014;-73
2023/05/06 04:19:44;;;;;;;34.30;21.50;;;9.30;99.90;;;;;;4988342;28;20035;-73
2023/05/06 04:22:09;;;;;;;33.60;22.00;;;9.30;99.90;;;;;;4990539;28;20076;-73
2023/05/06 04:24:35;;;;;;;38.75;20.27;;;9.40;99.90;;;;;;4995583;28;20057;-73
2023/05/06 04:27:02;;;;;;;91.00;22.38;;;9.40;99.90;;;;;;4992227;28;20058;-73
2023/05/06 04:29:27;;;;;;;103.70;22.75;;;9.50;99.90;;;;;;4989437;28;20034;-73
2023/05/06 04:31:54;;;;;;;30.98;18.90;;;9.40;99.90;;;;;;4991103;28;20030;-73
2023/05/06 04:34:19;;;;;;;28.90;14.68;;;9.50;99.90;;;;;;4996503;28;20030;-73
2023/05/06 04:36:46;;;;;;;21.17;13.43;;;9.50;99.90;;;;;;4998586;28;20406;-73
2023/05/06 04:39:12;;;;;;;24.77;13.88;;;9.50;99.90;;;;;;4998683;28;20033;-73
2023/05/06 04:41:38;;;;;;;28.63;14.95;;;9.50;99.90;;;;;;4997972;28;20057;-73
2023/05/06 04:44:04;;;;;;;65.75;17.52;;;9.60;99.90;;;;;;4990743;28;20062;-73
2023/05/06 04:46:29;;;;;;;54.63;19.50;;;9.60;99.90;;;;;;4995732;28;20050;-73
2023/05/06 04:48:56;;;;;;;37.78;18.23;;;9.60;99.90;;;;;;4999758;28;20098;-73
2023/05/06 04:51:22;;;;;;;23.10;14.43;;;9.60;99.90;;;;;;4990013;28;20034;-73
2023/05/06 04:53:48;;;;;;;28.25;13.50;;;9.70;99.90;;;;;;4992123;28;20035;-73
2023/05/06 04:56:13;;;;;;;28.45;12.52;;;9.70;99.90;;;;;;4982675;28;20037;-73
2023/05/06 04:58:39;;;;;;;23.17;11.95;;;9.70;99.90;;;;;;4983911;28;20046;-73
2023/05/06 05:01:07;;;;;;;19.90;12.10;;;9.70;99.90;;;;;;4987784;28;20030;-73
2023/05/06 05:03:33;;;;;;;19.45;11.65;;;9.70;99.90;;;;;;4987918;28;20050;-72
2023/05/06 05:05:58;;;;;;;47.50;18.75;;;9.80;99.90;;;;;;4980435;28;20041;-72
2023/05/06 05:08:24;;;;;;;46.97;20.10;;;9.80;99.90;;;;;;4985003;28;20499;-72
2023/05/06 05:10:50;;;;;;;37.05;20.52;;;9.90;99.90;;;;;;4974552;28;20106;-72
2023/05/06 05:13:15;;;;;;;77.40;22.55;;;10.00;99.90;;;;;;4984805;28;20097;-73
2023/05/06 05:15:41;;;;;;;56.00;21.67;;;10.00;99.90;;;;;;4988439;28;20034;-72
2023/05/06 05:18:06;;;;;;;36.38;21.17;;;10.10;99.90;;;;;;4988645;28;20101;-72
2023/05/06 05:20:32;;;;;;;49.53;22.50;;;10.20;99.90;;;;;;4988007;28;20462;-72
2023/05/06 05:22:57;;;;;;;41.97;21.50;;;10.30;99.90;;;;;;4992338;28;20039;-73
2023/05/06 05:25:23;;;;;;;38.22;23.08;;;10.50;99.90;;;;;;4993616;28;20038;-72
2023/05/06 05:27:48;;;;;;;38.38;22.65;;;10.60;99.90;;;;;;4984269;28;20058;-72
2023/05/06 05:30:15;;;;;;;40.45;24.63;;;10.70;99.90;;;;;;4981332;28;20022;-72
2023/05/06 05:32:40;;;;;;;34.15;24.95;;;10.90;99.90;;;;;;4986915;28;20109;-72
2023/05/06 05:35:08;;;;;;;34.17;24.30;;;11.10;99.90;;;;;;4992865;28;20113;-73
2023/05/06 05:37:34;;;;;;;34.22;22.33;;;11.20;99.90;;;;;;4992556;28;20101;-72
2023/05/06 05:40:03;;;;;;;32.13;24.10;;;11.40;99.90;;;;;;4992339;28;20031;-75
2023/05/06 05:42:32;;;;;;;31.48;22.85;;;11.60;99.90;;;;;;4981025;28;20034;-73
2023/05/06 05:44:59;;;;;;;37.28;25.02;;;11.60;99.90;;;;;;4989462;28;20036;-72
2023/05/06 05:47:25;;;;;;;34.10;24.40;;;11.80;99.90;;;;;;4987278;28;20038;-72
2023/05/06 05:49:50;;;;;;;34.85;25.27;;;11.80;99.90;;;;;;4991836;28;20037;-72
2023/05/06 05:52:16;;;;;;;34.58;25.67;;;11.90;99.90;;;;;;4989967;28;20480;-72
2023/05/06 05:54:42;;;;;;;38.70;27.38;;;12.10;99.90;;;;;;4975734;28;20041;-74
2023/05/06 05:57:07;;;;;;;39.03;26.38;;;12.10;99.90;;;;;;4972368;28;20058;-72
2023/05/06 05:59:33;;;;;;;34.97;25.40;;;12.20;99.90;;;;;;4987140;28;20072;-73
2023/05/06 06:01:59;;;;;;;32.90;26.23;;;12.40;99.90;;;;;;4987234;28;20032;-73
2023/05/06 06:04:24;;;;;;;35.50;26.92;;;12.50;99.90;;;;;;4980474;28;20613;-73
2023/05/06 06:06:50;;;;;;;33.88;24.75;;;12.60;99.90;;;;;;4991911;28;20084;-73
2023/05/06 06:09:16;;;;;;;31.48;24.30;;;12.70;99.90;;;;;;4990036;28;20027;-73
2023/05/06 06:11:42;;;;;;;34.58;24.85;;;12.80;99.90;;;;;;4979143;28;20056;-73
2023/05/06 06:14:07;;;;;;;30.25;23.80;;;12.80;99.90;;;;;;5001050;28;20025;-74
2023/05/06 06:16:35;;;;;;;29.83;22.48;;;12.90;99.90;;;;;;4990488;28;20078;-73
2023/05/06 06:19:00;;;;;;;35.63;23.20;;;13.00;99.90;;;;;;4969987;28;20038;-73
2023/05/06 06:21:26;;;;;;;29.10;22.10;;;13.00;99.90;;;;;;4981668;28;20437;-74
2023/05/06 06:23:52;;;;;;;30.27;22.80;;;13.10;99.90;;;;;;4992127;28;20022;-73
2023/05/06 06:26:18;;;;;;;30.50;22.85;;;13.10;99.90;;;;;;4989670;28;20026;-74
2023/05/06 06:28:43;;;;;;;34.08;23.35;;;13.10;99.90;;;;;;4996884;28;20026;-75
2023/05/06 06:31:10;;;;;;;32.33;22.83;;;13.20;99.90;;;;;;4989068;28;20171;-75
2023/05/06 06:33:35;;;;;;;29.58;22.50;;;13.30;99.90;;;;;;4983576;28;20061;-75
2023/05/06 06:36:01;;;;;;;30.48;21.65;;;13.30;99.90;;;;;;5002800;28;20124;-73
2023/05/06 06:38:26;;;;;;;29.75;23.05;;;13.40;99.90;;;;;;4985205;28;20390;-74
2023/05/06 06:40:52;;;;;;;28.25;21.33;;;13.50;99.90;;;;;;4999812;28;20109;-75
2023/05/06 06:43:22;;;;;;;30.13;22.58;;;13.60;99.90;;;;;;4987184;28;20085;-75
2023/05/06 06:45:48;;;;;;;30.02;22.75;;;13.60;99.90;;;;;;4991626;28;20045;-75
2023/05/06 06:48:15;;;;;;;27.55;21.83;;;13.70;99.90;;;;;;4993976;28;20478;-73
2023/05/06 06:50:41;;;;;;;32.72;23.05;;;13.80;99.90;;;;;;4991341;28;20018;-74
2023/05/06 06:53:06;;;;;;;32.03;22.50;;;13.90;99.90;;;;;;5004125;28;20023;-75
2023/05/06 06:55:32;;;;;;;29.52;21.98;;;14.10;99.90;;;;;;5002906;28;20113;-74
2023/05/06 06:57:58;;;;;;;30.02;22.08;;;14.20;99.90;;;;;;4991033;28;20093;-73
2023/05/06 07:00:25;;;;;;;32.75;22.45;;;14.30;99.90;;;;;;4983927;28;20471;-75
2023/05/06 07:02:54;;;;;;;29.15;21.83;;;14.40;99.90;;;;;;4993730;28;20026;-73
2023/05/06 07:05:19;;;;;;;27.20;20.85;;;14.60;99.90;;;;;;4992491;28;20110;-74
2023/05/06 07:07:45;;;;;;;26.40;20.63;;;14.70;99.90;;;;;;4986780;28;20119;-75
2023/05/06 07:10:11;;;;;;;26.30;20.48;;;14.70;99.90;;;;;;4983953;28;20093;-75
2023/05/06 07:12:37;;;;;;;25.85;20.45;;;14.80;99.90;;;;;;4989856;28;20026;-74
2023/05/06 07:15:05;;;;;;;24.77;19.50;;;14.90;99.90;;;;;;4991291;28;20026;-74
2023/05/06 07:17:32;;;;;;;26.05;18.88;;;15.00;99.90;;;;;;4994007;28;20537;-75
2023/05/06 07:19:57;;;;;;;33.22;18.20;;;15.00;99.90;;;;;;4993041;28;20034;-74
2023/05/06 07:22:23;;;;;;;24.10;18.67;;;15.10;99.90;;;;;;4990027;28;20459;-73
2023/05/06 07:24:49;;;;;;;21.73;16.75;;;15.10;99.90;;;;;;5006693;28;20037;-75
2023/05/06 07:27:14;;;;;;;24.55;18.08;;;15.20;99.90;;;;;;4989545;28;20109;-74
2023/05/06 07:29:40;;;;;;;21.20;18.13;;;15.30;99.90;;;;;;4984605;28;20126;-74
2023/05/06 07:32:06;;;;;;;24.88;18.15;;;15.50;99.90;;;;;;4985508;28;20025;-74
2023/05/06 07:34:33;;;;;;;25.98;18.85;;;15.60;99.90;;;;;;4977767;28;20026;-73
2023/05/06 07:37:00;;;;;;;22.63;16.38;;;15.70;99.90;;;;;;4991927;28;20044;-74
2023/05/06 07:39:25;;;;;;;23.67;19.17;;;15.80;99.90;;;;;;4988923;28;20515;-75
2023/05/06 07:41:51;;;;;;;24.48;16.83;;;15.90;99.90;;;;;;4980007;28;20054;-75
2023/05/06 07:44:17;;;;;;;21.95;16.05;;;15.90;99.90;;;;;;4983127;28;20125;-74
2023/05/06 07:46:43;;;;;;;22.65;18.02;;;16.10;99.90;;;;;;4984788;28;20030;-73
2023/05/06 07:49:08;;;;;;;24.55;18.55;;;16.10;99.90;;;;;;5001052;28;20496;-73
2023/05/06 07:51:34;;;;;;;23.42;17.08;;;16.20;99.90;;;;;;4991009;28;20446;-73
2023/05/06 07:54:00;;;;;;;22.75;17.40;;;16.30;99.90;;;;;;4981456;28;20026;-74
2023/05/06 07:56:26;;;;;;;23.17;17.42;;;16.40;99.90;;;;;;4989160;28;20030;-75
2023/05/06 07:58:51;;;;;;;24.08;17.05;;;16.50;99.90;;;;;;4996428;28;20513;-73
2023/05/06 08:01:17;;;;;;;24.30;17.25;;;16.70;99.90;;;;;;4992874;28;20042;-75
2023/05/06 08:03:43;;;;;;;22.15;17.02;;;16.70;99.90;;;;;;4985240;28;20034;-76
2023/05/06 08:06:09;;;;;;;24.40;17.38;;;16.80;99.90;;;;;;4975336;28;20557;-75
2023/05/06 08:08:35;;;;;;;21.77;16.42;;;16.90;99.90;;;;;;4987176;28;20027;-74
2023/05/06 08:11:01;;;;;;;23.23;16.85;;;17.00;99.90;;;;;;4990031;28;20076;-74
2023/05/06 08:13:27;;;;;;;25.85;18.30;;;17.20;99.90;;;;;;4976496;28;20881;-75
2023/05/06 08:15:52;;;;;;;23.90;16.42;;;17.20;99.90;;;;;;4981243;28;20201;-73
2023/05/06 08:18:18;;;;;;;25.45;16.63;;;17.40;99.90;;;;;;4985866;28;20478;-76
2023/05/06 08:20:44;;;;;;;23.50;16.48;;;17.40;99.90;;;;;;4982865;28;20033;-74
2023/05/06 08:23:10;;;;;;;22.85;16.10;;;17.60;99.90;;;;;;4988840;28;20026;-73
2023/05/06 08:25:35;;;;;;;28.10;17.38;;;17.70;99.90;;;;;;4992331;28;20081;-73
2023/05/06 08:28:01;;;;;;;21.73;16.52;;;17.90;99.90;;;;;;4991432;28;20450;-74
2023/05/06 08:30:29;;;;;;;21.67;15.48;;;18.00;99.90;;;;;;5000703;28;20432;-75
2023/05/06 08:32:55;;;;;;;25.55;16.67;;;18.00;99.90;;;;;;4987553;28;20026;-75
2023/05/06 08:35:21;;;;;;;27.65;16.73;;;18.10;99.90;;;;;;4990639;28;20386;-75
2023/05/06 08:37:46;;;;;;;28.00;17.08;;;18.30;99.90;;;;;;4992042;28;20174;-74
2023/05/06 08:40:19;;;;;;;23.85;15.90;;;18.40;99.90;;;;;;4991035;28;20093;-75
2023/05/06 08:42:49;;;;;;;28.77;16.60;;;18.40;99.90;;;;;;4988633;28;20116;-74
2023/05/06 08:45:18;;;;;;;25.30;16.52;;;18.40;99.90;;;;;;4990496;28;20023;-75
2023/05/06 08:47:45;;;;;;;25.77;16.00;;;18.50;99.90;;;;;;4986316;28;20033;-75
2023/05/06 08:50:11;;;;;;;25.50;16.70;;;18.60;99.90;;;;;;4989461;28;20058;-74
2023/05/06 08:52:40;;;;;;;23.13;15.88;;;18.60;99.90;;;;;;4992038;28;20061;-74
2023/05/06 08:55:08;;;;;;;25.48;15.65;;;18.70;99.90;;;;;;4986823;28;20487;-73
2023/05/06 08:57:34;;;;;;;20.20;14.93;;;18.80;99.90;;;;;;4991073;28;20069;-75
2023/05/06 09:00:00;;;;;;;22.65;16.10;;;18.80;99.90;;;;;;5000059;28;20035;-76
2023/05/06 09:02:26;;;;;;;26.02;15.73;;;18.80;99.90;;;;;;4982489;28;20450;-74
2023/05/06 09:04:53;;;;;;;21.65;15.35;;;18.70;99.90;;;;;;4975464;28;20030;-75
2023/05/06 09:07:20;;;;;;;28.00;15.52;;;18.80;99.90;;;;;;4984009;28;20084;-74
2023/05/06 09:09:46;;;;;;;21.77;15.15;;;18.80;99.90;;;;;;4988966;28;20348;-73
2023/05/06 09:12:12;;;;;;;23.17;14.77;;;18.80;99.90;;;;;;4983160;28;20022;-73
2023/05/06 09:14:39;;;;;;;22.10;15.52;;;18.80;99.90;;;;;;4981289;28;20042;-74
2023/05/06 09:17:05;;;;;;;19.95;14.45;;;18.80;99.90;;;;;;4977626;28;20019;-74
2023/05/06 09:19:31;;;;;;;20.88;14.65;;;18.90;99.90;;;;;;4984745;28;20089;-74
2023/05/06 09:21:56;;;;;;;19.85;14.30;;;19.00;99.90;;;;;;4992590;28;20062;-74
2023/05/06 09:24:23;;;;;;;15.93;12.52;;;19.00;99.90;;;;;;4991390;28;20026;-74
2023/05/06 09:26:50;;;;;;;18.70;13.10;;;19.20;99.90;;;;;;4998759;28;20026;-74
2023/05/06 09:29:16;;;;;;;17.35;13.50;;;19.40;99.90;;;;;;4999833;28;20031;-74
2023/05/06 09:31:46;;;;;;;18.42;13.90;;;19.40;99.90;;;;;;5000818;28;20497;-74
2023/05/06 09:34:13;;;;;;;17.98;12.50;;;19.50;99.90;;;;;;4991293;28;20031;-74
2023/05/06 09:36:39;;;;;;;16.48;11.95;;;19.60;99.90;;;;;;4990944;28;20419;-74
2023/05/06 09:39:05;;;;;;;16.52;11.70;;;19.70;99.90;;;;;;4989618;28;20100;-75
2023/05/06 09:41:32;;;;;;;14.65;11.57;;;19.70;99.90;;;;;;4991423;28;20030;-74
2023/05/06 09:43:58;;;;;;;15.40;10.77;;;19.80;99.90;;;;;;4988183;28;20030;-74
2023/05/06 09:46:24;;;;;;;15.70;10.27;;;19.90;99.90;;;;;;4991185;28;20092;-75
2023/05/06 09:48:51;;;;;;;13.25;8.70;;;20.00;99.90;;;;;;4989131;28;20042;-74
2023/05/06 09:51:18;;;;;;;11.52;8.32;;;20.30;99.90;;;;;;4990228;28;20038;-75
2023/05/06 09:53:44;;;;;;;15.18;8.82;;;20.50;99.90;;;;;;4990923;28;20026;-74
2023/05/06 09:56:10;;;;;;;12.35;8.48;;;20.70;99.90;;;;;;4988184;28;20376;-75
2023/05/06 09:58:37;;;;;;;9.65;8.63;;;20.80;99.90;;;;;;4980433;28;20046;-75
2023/05/06 10:01:04;;;;;;;11.32;8.63;;;20.90;99.90;;;;;;4986141;28;20041;-75
2023/05/06 10:03:30;;;;;;;11.10;8.55;;;21.00;99.90;;;;;;4989183;28;20073;-74
2023/05/06 10:05:59;;;;;;;9.07;7.47;;;21.10;99.90;;;;;;4989730;28;20494;-75
2023/05/06 10:08:25;;;;;;;9.07;6.47;;;21.20;99.90;;;;;;4989374;28;20109;-74
2023/05/06 10:10:52;;;;;;;11.68;7.25;;;21.10;99.90;;;;;;4987145;28;20036;-74
2023/05/06 10:13:19;;;;;;;8.93;7.75;;;21.10;99.90;;;;;;4988155;28;20015;-75
2023/05/06 10:15:47;;;;;;;9.25;7.03;;;21.20;99.90;;;;;;4997191;28;20083;-75
2023/05/06 10:18:15;;;;;;;8.73;6.82;;;21.20;99.90;;;;;;4994438;28;20089;-75
2023/05/06 10:20:43;;;;;;;8.38;6.43;;;21.20;99.90;;;;;;4990763;28;20046;-74
2023/05/06 10:23:29;;;;;;;10.15;6.65;;;21.20;99.90;;;;;;4996015;28;20096;-75
2023/05/06 10:25:56;;;;;;;9.82;7.20;;;21.20;99.90;;;;;;4988566;28;20050;-75
2023/05/06 10:28:22;;;;;;;7.85;6.05;;;21.10;99.90;;;;;;4994743;28;20034;-75
2023/05/06 10:30:49;;;;;;;8.20;5.93;;;21.10;99.90;;;;;;4990894;28;20076;-74
2023/05/06 10:33:15;;;;;;;10.80;6.28;;;21.20;99.90;;;;;;4997263;28;20073;-75
2023/05/06 10:35:45;;;;;;;9.05;5.85;;;21.20;99.90;;;;;;5000225;28;20033;-75
2023/05/06 10:38:28;;;;;;;8.90;5.30;;;21.20;99.90;;;;;;4992462;28;20028;-75
2023/05/06 10:40:55;;;;;;;15.15;6.90;;;21.30;99.90;;;;;;5002378;28;20129;-74
2023/05/06 10:43:54;;;;;;;8.02;5.10;;;21.30;99.90;;;;;;5012672;28;20030;-74
2023/05/06 10:46:20;;;;;;;6.45;4.13;;;21.40;99.90;;;;;;4994568;28;20382;-75
2023/05/06 10:49:19;;;;;;;6.38;4.40;;;21.50;99.90;;;;;;5009682;28;20021;-75
2023/05/06 10:51:45;;;;;;;6.32;3.70;;;21.70;99.90;;;;;;4994522;28;20509;-75
2023/05/06 10:54:16;;;;;;;5.90;3.78;;;21.70;99.90;;;;;;4989820;28;20031;-75
2023/05/06 10:56:51;;;;;;;6.63;3.30;;;21.80;99.90;;;;;;4990785;28;20056;-75
2023/05/06 10:59:22;;;;;;;5.55;3.45;;;21.90;99.90;;;;;;4973161;28;20509;-75
2023/05/06 11:02:06;;;;;;;6.00;2.80;;;21.90;99.90;;;;;;4992984;28;20485;-75
2023/05/06 11:04:32;;;;;;;5.85;2.90;;;22.00;99.90;;;;;;4985580;28;20039;-75
2023/05/06 11:07:12;;;;;;;6.38;2.92;;;22.00;99.90;;;;;;4991483;28;20034;-75
2023/05/06 11:09:59;;;;;;;3.63;2.67;;;22.20;99.90;;;;;;5005387;28;20034;-75
2023/05/06 11:13:21;;;;;;;6.70;3.28;;;22.30;99.90;;;;;;4990496;28;20090;-75
2023/05/06 11:15:49;;;;;;;;;;;22.30;99.90;;;;;;4992969;28;20026;-76
2023/05/06 11:18:25;;;;;;;4.88;3.25;;;22.20;99.90;;;;;;4989858;28;19933;-76
2023/05/06 11:21:11;;;;;;;4.65;2.53;;;22.20;99.90;;;;;;4981882;28;20037;-75
2023/05/06 11:23:48;;;;;;;3.97;2.78;;;22.30;99.90;;;;;;5005087;28;20080;-75
2023/05/06 11:26:14;;;;;;;4.80;2.83;;;22.40;99.90;;;;;;4993937;28;20038;-74
2023/05/06 11:28:42;;;;;;;6.25;2.80;;;22.50;99.90;;;;;;4992840;28;20372;-75
2023/05/06 11:31:09;;;;;;;6.25;2.83;;;22.60;99.90;;;;;;5008144;28;20137;-75
2023/05/06 11:33:35;;;;;;;5.07;2.67;;;22.70;99.90;;;;;;4993688;28;20022;-74
2023/05/06 11:36:02;;;;;;;6.20;3.10;;;22.80;99.90;;;;;;4980641;28;20471;-74
2023/05/06 11:38:55;;;;;;;4.38;2.50;;;23.00;99.50;;;;;;4978730;28;20030;-75
2023/05/06 11:41:21;;;;;;;;;;;23.00;98.50;;;;;;5004943;28;20521;-74
2023/05/06 11:43:52;;;;;;;6.22;2.72;;;23.00;99.20;;;;;;4997246;28;20274;-74
2023/05/06 11:46:18;;;;;;;5.57;2.30;;;23.10;98.10;;;;;;4992415;28;20041;-75
2023/05/06 11:48:44;;;;;;;5.30;2.65;;;23.10;97.90;;;;;;4992386;28;20105;-75
2023/05/06 11:51:10;;;;;;;6.43;2.75;;;23.10;97.10;;;;;;5006651;28;20113;-75
2023/05/06 11:53:36;;;;;;;4.68;2.33;;;23.20;97.70;;;;;;4991451;28;20027;-75
2023/05/06 11:56:04;;;;;;;6.18;2.55;;;23.20;96.90;;;;;;4993181;28;20034;-75
2023/05/06 11:58:29;;;;;;;4.65;2.25;;;23.20;96.10;;;;;;4993261;28;20046;-74
2023/05/06 12:00:57;;;;;;;5.28;2.22;;;23.20;95.70;;;;;;4984829;28;20031;-75
2023/05/06 12:03:24;;;;;;;3.97;1.75;;;23.30;95.70;;;;;;4994826;28;20030;-75
2023/05/06 12:05:51;;;;;;;3.72;2.05;;;23.50;95.00;;;;;;4987584;28;20107;-75
2023/05/06 12:08:22;;;;;;;3.17;2.28;;;23.50;94.90;;;;;;4978916;28;20448;-75
2023/05/06 12:10:49;;;;;;;4.55;1.55;;;23.50;94.90;;;;;;5012799;28;20025;-75
2023/05/06 12:13:15;;;;;;;4.80;2.38;;;23.50;94.80;;;;;;5001405;28;20031;-75
2023/05/06 12:15:42;;;;;;;5.32;1.80;;;23.60;93.90;;;;;;4999006;28;20033;-74
2023/05/06 12:18:08;;;;;;;3.47;1.60;;;23.60;93.60;;;;;;4993662;28;20026;-75
2023/05/06 12:20:34;;;;;;;3.65;1.88;;;23.70;93.60;;;;;;4999872;28;20080;-75
2023/05/06 12:23:14;;;;;;;4.55;2.00;;;23.70;93.10;;;;;;4983783;28;20231;-75
2023/05/06 12:25:41;;;;;;;4.70;2.20;;;23.70;92.90;;;;;;5004606;28;20513;-74
2023/05/06 12:28:17;;;;;;;4.75;2.13;;;23.70;92.10;;;;;;4995415;28;20466;-75
2023/05/06 12:30:44;;;;;;;3.65;1.90;;;23.80;92.00;;;;;;4996655;28;20482;-75
2023/05/06 12:33:10;;;;;;;3.90;1.88;;;23.90;92.00;;;;;;4986288;28;20033;-75